Terminal Aerodrome Forecast
Issued by NWS Louisville, KY

Home | Current Version | Previous Version | Text Only | Print | Product List | Glossary On
Versions: 1 2 3 4 5 6 7 8 9 10 11 12 13 14 15 16 17 18 19
000
FTUS43 KLMK 191720
TAFBWG
TAF
KBWG 191720Z 1918/2018 22010KT P6SM FEW250
     FM200000 VRB03KT P6SM SKC
     FM200800 00000KT 2SM BR FEW250
      TEMPO 2009/2012 1/2SM FG
     FM201300 00000KT P6SM FEW250=

USA.gov is the U.S. government's official web portal to all federal, state and local government web resources and services.